Time;durP1;ratioP1;P1;durP2;ratioP2;P2;SDS_P1;SDS_P2;PMS_P1;PMS_P2;Temp;Humidity;BMP_temperature;BMP_pressure;BME280_temperature;BME280_humidity;BME280_pressure;Samples;Min_cycle;Max_cycle;Signal;HPM_P1;HPM_P2
2021/12/09 00:01:23;;;;;;;28.52;16.50;;;4.30;44.90;;;;;;5106142;27;20044;-78
2021/12/09 00:03:56;;;;;;;27.45;16.80;;;4.30;46.50;;;;;;5116091;27;20039;-78
2021/12/09 00:06:27;;;;;;;26.80;15.65;;;4.30;47.70;;;;;;5101585;27;20149;-78
2021/12/09 00:08:58;;;;;;;26.05;16.00;;;4.20;48.50;;;;;;5084782;27;20043;-78
2021/12/09 00:11:27;;;;;;;27.75;15.93;;;4.20;48.90;;;;;;5107894;27;20051;-77
2021/12/09 00:13:56;;;;;;;27.17;15.68;;;4.20;49.50;;;;;;5121765;27;20046;-77
2021/12/09 00:16:24;;;;;;;31.27;16.52;;;4.20;49.50;;;;;;5124553;27;20134;-77
2021/12/09 00:18:53;;;;;;;24.50;15.45;;;4.20;49.60;;;;;;5120760;27;20100;-78
2021/12/09 00:21:21;;;;;;;23.55;12.75;;;4.20;49.60;;;;;;5122444;27;20092;-78
2021/12/09 00:23:49;;;;;;;19.38;9.35;;;4.00;46.80;;;;;;5106029;27;20078;-78
2021/12/09 00:26:17;;;;;;;16.75;8.88;;;4.00;46.00;;;;;;5114640;27;20546;-77
2021/12/09 00:28:48;;;;;;;18.42;9.18;;;4.00;46.70;;;;;;5119425;27;20051;-77
2021/12/09 00:31:18;;;;;;;14.85;8.85;;;3.90;47.10;;;;;;5115888;27;20040;-77
2021/12/09 00:33:47;;;;;;;13.65;7.88;;;3.90;48.30;;;;;;5117724;27;20464;-77
2021/12/09 00:36:26;;;;;;;15.25;7.35;;;3.80;47.70;;;;;;5115700;27;20112;-77
2021/12/09 00:38:56;;;;;;;16.73;8.98;;;3.80;47.30;;;;;;5113161;27;20146;-77
2021/12/09 00:41:24;;;;;;;13.07;6.68;;;3.80;48.20;;;;;;5095348;28;20043;-78
2021/12/09 00:43:52;;;;;;;13.32;6.93;;;3.60;46.60;;;;;;5118732;27;20071;-78
2021/12/09 00:46:20;;;;;;;15.45;7.13;;;3.70;47.40;;;;;;5099363;27;20059;-78
2021/12/09 00:48:50;;;;;;;12.85;6.65;;;3.60;46.60;;;;;;5118915;27;20444;-78
2021/12/09 00:51:20;;;;;;;14.25;6.30;;;3.60;46.20;;;;;;5106142;27;20063;-78
2021/12/09 00:53:48;;;;;;;15.68;5.75;;;3.60;47.40;;;;;;5125824;27;20120;-79
2021/12/09 00:56:17;;;;;;;13.25;6.45;;;3.50;47.60;;;;;;5121106;27;20049;-78
2021/12/09 00:58:45;;;;;;;10.88;5.97;;;3.50;47.10;;;;;;5119664;27;20052;-77
2021/12/09 01:01:13;;;;;;;12.52;6.70;;;3.50;47.00;;;;;;5114423;27;20111;-77
2021/12/09 01:03:43;;;;;;;13.68;6.32;;;3.50;48.20;;;;;;5114666;27;20077;-77
2021/12/09 01:06:13;;;;;;;9.07;4.72;;;3.40;48.50;;;;;;5120065;27;20050;-77
2021/12/09 01:08:44;;;;;;;9.45;4.53;;;3.40;47.80;;;;;;5122680;27;20075;-77
2021/12/09 01:11:12;;;;;;;8.65;5.07;;;3.40;48.90;;;;;;5116422;27;20155;-77
2021/12/09 01:13:41;;;;;;;8.93;5.00;;;3.40;48.90;;;;;;5100260;27;20047;-76
2021/12/09 01:16:10;;;;;;;8.35;5.10;;;3.40;48.90;;;;;;5120470;27;20077;-76
2021/12/09 01:18:39;;;;;;;10.90;5.53;;;3.40;48.90;;;;;;5119370;28;20514;-76
2021/12/09 01:21:10;;;;;;;11.75;6.30;;;3.50;49.10;;;;;;5113192;28;20043;-76
2021/12/09 01:23:38;;;;;;;13.40;6.03;;;3.50;49.10;;;;;;5118369;27;20526;-76
2021/12/09 01:26:07;;;;;;;15.18;6.03;;;3.50;49.10;;;;;;5122250;27;20047;-77
2021/12/09 01:28:44;;;;;;;12.30;6.72;;;3.50;49.30;;;;;;5121855;27;20083;-77
2021/12/09 01:31:20;;;;;;;15.63;7.03;;;3.50;49.30;;;;;;5117902;27;20043;-76
2021/12/09 01:33:50;;;;;;;13.73;6.45;;;3.50;49.60;;;;;;5100706;28;20050;-76
2021/12/09 01:36:18;;;;;;;14.23;6.10;;;3.60;50.20;;;;;;5100515;28;20434;-76
2021/12/09 01:38:46;;;;;;;16.15;7.25;;;3.60;50.30;;;;;;5123894;27;20051;-76
2021/12/09 01:41:16;;;;;;;11.65;6.70;;;3.60;50.70;;;;;;5122494;27;20051;-75
2021/12/09 01:43:44;;;;;;;16.38;7.90;;;3.60;50.70;;;;;;5128622;27;20054;-76
2021/12/09 01:46:14;;;;;;;14.85;9.23;;;3.70;50.80;;;;;;5126412;27;20165;-76
2021/12/09 01:48:45;;;;;;;23.05;11.07;;;3.70;50.80;;;;;;5128658;27;20127;-76
2021/12/09 01:51:14;;;;;;;21.88;12.48;;;3.70;50.80;;;;;;5105504;27;20039;-76
2021/12/09 01:53:43;;;;;;;22.08;11.35;;;3.70;50.80;;;;;;5124178;27;20356;-76
2021/12/09 01:56:20;;;;;;;29.30;12.65;;;3.70;51.00;;;;;;5128296;27;20388;-75
2021/12/09 01:58:49;;;;;;;22.15;12.57;;;3.70;51.20;;;;;;5124779;27;20047;-76
2021/12/09 02:01:18;;;;;;;22.67;12.52;;;3.70;51.10;;;;;;5122587;27;20712;-76
2021/12/09 02:03:46;;;;;;;21.75;11.43;;;3.70;51.30;;;;;;5109062;27;20409;-76
2021/12/09 02:06:16;;;;;;;22.63;12.43;;;3.70;51.30;;;;;;5126108;27;20442;-76
2021/12/09 02:08:44;;;;;;;23.77;12.15;;;3.70;51.50;;;;;;5126446;27;20042;-76
2021/12/09 02:11:12;;;;;;;21.55;11.00;;;3.70;50.80;;;;;;5122013;27;20065;-76
2021/12/09 02:13:42;;;;;;;20.95;11.23;;;3.70;51.50;;;;;;5125552;27;20074;-76
2021/12/09 02:16:10;;;;;;;19.45;11.27;;;3.70;51.40;;;;;;5131106;27;20119;-75
2021/12/09 02:18:38;;;;;;;18.85;10.85;;;3.70;51.70;;;;;;5126529;27;20269;-76
2021/12/09 02:21:12;;;;;;;16.77;10.43;;;3.70;51.70;;;;;;5123227;27;20087;-76
2021/12/09 02:23:42;;;;;;;20.80;10.40;;;3.70;51.70;;;;;;5124548;27;20912;-76
2021/12/09 02:26:11;;;;;;;20.08;10.55;;;3.70;51.70;;;;;;5127578;27;20047;-76
2021/12/09 02:28:40;;;;;;;20.40;10.57;;;3.70;50.40;;;;;;5121453;27;20148;-75
2021/12/09 02:31:09;;;;;;;22.67;10.90;;;3.70;50.80;;;;;;5121708;27;20069;-75
2021/12/09 02:33:37;;;;;;;19.02;10.32;;;3.70;50.80;;;;;;5108120;27;20054;-76
2021/12/09 02:36:06;;;;;;;23.52;11.48;;;3.70;50.80;;;;;;5122286;27;20049;-76
2021/12/09 02:38:41;;;;;;;26.30;10.23;;;3.70;50.00;;;;;;5123438;27;20070;-76
2021/12/09 02:41:14;;;;;;;22.20;9.82;;;3.70;50.50;;;;;;5122993;27;20046;-76
2021/12/09 02:43:44;;;;;;;18.42;9.70;;;3.70;50.20;;;;;;5121104;27;20046;-76
2021/12/09 02:46:13;;;;;;;22.40;11.02;;;3.70;50.20;;;;;;5121500;27;20071;-76
2021/12/09 02:48:41;;;;;;;19.35;9.20;;;3.70;50.50;;;;;;5122522;27;20065;-76
2021/12/09 02:51:09;;;;;;;21.95;10.13;;;3.70;50.00;;;;;;5121479;27;20039;-75
2021/12/09 02:53:39;;;;;;;21.02;10.05;;;3.60;49.40;;;;;;5121077;27;20075;-75
2021/12/09 02:56:07;;;;;;;18.23;10.13;;;3.60;49.30;;;;;;5126495;27;20043;-75
2021/12/09 02:58:39;;;;;;;19.08;9.68;;;3.60;49.20;;;;;;5107113;27;20059;-75
2021/12/09 03:01:13;;;;;;;18.48;10.40;;;3.60;49.20;;;;;;5102414;27;20048;-75
2021/12/09 03:03:49;;;;;;;18.35;9.10;;;3.60;49.20;;;;;;5091184;27;20130;-75
2021/12/09 03:06:18;;;;;;;17.73;8.68;;;3.50;49.10;;;;;;5127041;27;20061;-75
2021/12/09 03:08:48;;;;;;;15.48;8.52;;;3.60;49.10;;;;;;5120426;27;20069;-76
2021/12/09 03:11:20;;;;;;;17.33;7.45;;;3.60;49.10;;;;;;5104240;27;20039;-75
2021/12/09 03:13:49;;;;;;;16.70;7.82;;;3.50;49.10;;;;;;5104539;27;20086;-75
2021/12/09 03:16:19;;;;;;;16.63;7.72;;;3.50;48.90;;;;;;5122549;27;20043;-75
2021/12/09 03:18:51;;;;;;;12.75;6.82;;;3.50;48.90;;;;;;5121820;27;20048;-76
2021/12/09 03:21:24;;;;;;;17.60;7.50;;;3.50;48.70;;;;;;5122622;27;20146;-75
2021/12/09 03:23:53;;;;;;;15.90;7.30;;;3.40;47.60;;;;;;5090335;27;20053;-76
2021/12/09 03:26:28;;;;;;;15.52;6.75;;;3.50;47.80;;;;;;5121294;27;20126;-76
2021/12/09 03:28:58;;;;;;;13.73;7.35;;;3.40;47.00;;;;;;5122960;27;20039;-75
2021/12/09 03:31:27;;;;;;;12.85;6.90;;;3.40;47.50;;;;;;5118136;27;20043;-75
2021/12/09 03:33:55;;;;;;;18.33;7.25;;;3.40;48.10;;;;;;5125830;27;20230;-75
2021/12/09 03:36:27;;;;;;;13.55;6.43;;;3.40;47.40;;;;;;5118760;27;20529;-76
2021/12/09 03:38:58;;;;;;;14.02;6.88;;;3.40;47.20;;;;;;5102154;27;20410;-76
2021/12/09 03:41:28;;;;;;;16.65;7.30;;;3.40;47.20;;;;;;5119931;27;20044;-76
2021/12/09 03:43:58;;;;;;;17.85;7.32;;;3.40;47.00;;;;;;5124903;27;20110;-76
2021/12/09 03:46:28;;;;;;;12.43;7.13;;;3.40;47.50;;;;;;5104530;27;20051;-76
2021/12/09 03:48:57;;;;;;;15.10;7.03;;;3.40;47.60;;;;;;5122702;27;20047;-77
2021/12/09 03:51:25;;;;;;;16.50;6.80;;;3.40;47.10;;;;;;5103067;27;20095;-76
2021/12/09 03:53:53;;;;;;;20.02;7.18;;;3.40;47.10;;;;;;5108414;27;20210;-76
2021/12/09 03:56:23;;;;;;;15.48;7.13;;;3.40;47.20;;;;;;5122629;27;20047;-76
2021/12/09 03:58:52;;;;;;;16.33;7.82;;;3.40;47.40;;;;;;5104572;27;20066;-76
2021/12/09 04:01:20;;;;;;;19.10;7.03;;;3.30;46.90;;;;;;5104555;27;20133;-76
2021/12/09 04:03:49;;;;;;;24.23;8.32;;;3.30;47.20;;;;;;5102824;27;20039;-76
2021/12/09 04:06:18;;;;;;;21.80;7.35;;;3.30;46.90;;;;;;5123798;27;20047;-76
2021/12/09 04:08:47;;;;;;;15.77;7.15;;;3.40;47.20;;;;;;5122821;27;20066;-76
2021/12/09 04:11:16;;;;;;;16.02;7.65;;;3.30;47.10;;;;;;5098410;27;20310;-76
2021/12/09 04:13:48;;;;;;;17.55;7.32;;;3.30;46.20;;;;;;5121914;27;20039;-75
2021/12/09 04:16:17;;;;;;;16.50;7.65;;;3.30;46.60;;;;;;5126503;27;20054;-75
2021/12/09 04:18:46;;;;;;;19.00;7.95;;;3.30;46.00;;;;;;5101813;27;20036;-75
2021/12/09 04:21:14;;;;;;;23.88;9.73;;;3.30;46.20;;;;;;5119059;27;20052;-75
2021/12/09 04:23:43;;;;;;;20.35;8.88;;;3.30;45.90;;;;;;5124206;27;20543;-75
2021/12/09 04:26:11;;;;;;;21.55;7.47;;;3.20;46.20;;;;;;5116434;27;20138;-75
2021/12/09 04:28:42;;;;;;;13.75;7.50;;;3.20;46.30;;;;;;5118917;27;20047;-75
2021/12/09 04:31:11;;;;;;;17.08;7.05;;;3.20;46.30;;;;;;5120959;27;20503;-75
2021/12/09 04:33:41;;;;;;;17.10;8.23;;;3.10;46.30;;;;;;5125044;27;20043;-76
2021/12/09 04:36:11;;;;;;;16.13;7.30;;;3.10;46.20;;;;;;5122785;27;20067;-74
2021/12/09 04:38:39;;;;;;;16.65;7.18;;;3.10;47.00;;;;;;5119697;27;20054;-76
2021/12/09 04:41:11;;;;;;;14.38;7.40;;;3.00;46.40;;;;;;5120878;27;20642;-76
2021/12/09 04:43:40;;;;;;;15.75;7.30;;;3.00;46.60;;;;;;5122389;27;20781;-76
2021/12/09 04:46:11;;;;;;;15.73;6.85;;;3.00;46.60;;;;;;5121935;27;20035;-76
2021/12/09 04:48:40;;;;;;;16.17;7.50;;;3.00;46.30;;;;;;5122232;27;20203;-77
2021/12/09 04:51:09;;;;;;;19.88;7.20;;;3.00;46.20;;;;;;5118560;27;20126;-75
2021/12/09 04:53:37;;;;;;;12.23;6.80;;;3.00;45.90;;;;;;5122404;27;20047;-75
2021/12/09 04:56:06;;;;;;;14.27;6.85;;;3.00;45.30;;;;;;5095364;28;20063;-76
2021/12/09 04:58:35;;;;;;;16.55;7.80;;;3.10;45.30;;;;;;5121842;27;20103;-76
2021/12/09 05:01:06;;;;;;;14.80;6.85;;;3.10;45.40;;;;;;5121097;27;20122;-75
2021/12/09 05:03:36;;;;;;;17.90;6.65;;;3.10;45.00;;;;;;5122138;27;20078;-75
2021/12/09 05:06:04;;;;;;;17.60;6.70;;;3.10;44.70;;;;;;5120704;27;20237;-76
2021/12/09 05:08:33;;;;;;;13.95;6.70;;;3.10;44.70;;;;;;5125198;27;20623;-75
2021/12/09 05:11:07;;;;;;;13.75;6.28;;;3.10;44.90;;;;;;5119889;27;20043;-76
2021/12/09 05:13:38;;;;;;;12.73;6.40;;;3.10;44.70;;;;;;5118089;27;20107;-75
2021/12/09 05:16:08;;;;;;;18.67;5.93;;;3.10;44.60;;;;;;5124471;27;20086;-76
2021/12/09 05:18:40;;;;;;;10.90;5.93;;;3.10;44.70;;;;;;5118930;28;20050;-75
2021/12/09 05:21:11;;;;;;;13.15;6.28;;;3.10;43.70;;;;;;5115081;27;20047;-76
2021/12/09 05:23:40;;;;;;;12.70;5.63;;;3.00;43.60;;;;;;5123625;27;20043;-76
2021/12/09 05:26:09;;;;;;;11.23;5.90;;;3.10;44.30;;;;;;5120596;27;20075;-76
2021/12/09 05:28:53;;;;;;;15.75;6.15;;;3.00;44.20;;;;;;5101340;28;20097;-76
2021/12/09 05:34:08;;;;;;;13.45;5.72;;;3.20;44.00;;;;;;5122484;27;19919;-75
2021/12/09 05:36:37;;;;;;;13.63;5.32;;;3.20;43.20;;;;;;5105314;28;20043;-75
2021/12/09 05:39:10;;;;;;;12.70;5.32;;;3.20;42.50;;;;;;5122077;27;20055;-75
2021/12/09 05:41:39;;;;;;;12.98;5.95;;;3.20;41.90;;;;;;5115788;27;20111;-75
2021/12/09 05:44:11;;;;;;;13.27;5.65;;;3.20;41.70;;;;;;5121831;27;20391;-75
2021/12/09 05:46:43;;;;;;;12.20;4.57;;;3.20;40.70;;;;;;5119070;27;20036;-75
2021/12/09 05:49:14;;;;;;;14.65;5.38;;;3.20;40.30;;;;;;5121199;28;20510;-76
2021/12/09 05:51:44;;;;;;;11.18;5.15;;;3.20;40.70;;;;;;5124143;27;20063;-76
2021/12/09 05:54:13;;;;;;;10.75;4.85;;;3.20;40.70;;;;;;5116101;28;20048;-75
2021/12/09 05:56:41;;;;;;;17.38;6.95;;;3.20;40.70;;;;;;5121692;27;20081;-75
2021/12/09 05:59:11;;;;;;;12.55;4.82;;;3.20;40.60;;;;;;5122478;27;20055;-75
2021/12/09 06:01:40;;;;;;;9.82;4.63;;;3.20;40.20;;;;;;5115053;27;20046;-76
2021/12/09 06:04:10;;;;;;;12.15;4.70;;;3.20;39.80;;;;;;5118340;28;20047;-75
2021/12/09 06:06:40;;;;;;;10.45;4.80;;;3.10;38.70;;;;;;5116874;28;20047;-76
2021/12/09 06:09:10;;;;;;;11.73;5.50;;;3.10;38.60;;;;;;5119963;27;20075;-75
2021/12/09 06:11:39;;;;;;;12.05;5.05;;;3.10;38.50;;;;;;5115714;27;20051;-75
2021/12/09 06:14:08;;;;;;;9.50;5.30;;;3.10;38.10;;;;;;5120884;27;20051;-75
2021/12/09 06:16:36;;;;;;;13.95;4.93;;;3.10;37.90;;;;;;5101206;28;20525;-75
2021/12/09 06:19:05;;;;;;;11.32;5.05;;;3.00;37.90;;;;;;5122124;27;20058;-74
2021/12/09 06:21:33;;;;;;;10.30;4.68;;;3.00;37.70;;;;;;5122233;27;20051;-75
2021/12/09 06:24:03;;;;;;;10.30;4.70;;;3.00;38.00;;;;;;5120230;27;20444;-76
2021/12/09 06:26:33;;;;;;;8.95;4.32;;;3.00;38.50;;;;;;5126235;27;20131;-76
2021/12/09 06:29:01;;;;;;;12.50;4.88;;;3.00;38.70;;;;;;5122848;27;20142;-75
2021/12/09 06:31:29;;;;;;;9.40;4.93;;;2.90;38.80;;;;;;5122530;27;20151;-75
2021/12/09 06:33:57;;;;;;;11.32;5.10;;;2.90;38.20;;;;;;5118538;27;20047;-75
2021/12/09 06:36:25;;;;;;;8.00;5.05;;;2.90;38.20;;;;;;5123469;27;20482;-75
2021/12/09 06:38:53;;;;;;;12.43;5.20;;;2.90;38.80;;;;;;5126126;27;20053;-76
2021/12/09 06:41:23;;;;;;;9.70;4.95;;;2.80;39.40;;;;;;5120972;27;20067;-75
2021/12/09 06:43:51;;;;;;;11.88;5.47;;;2.80;39.90;;;;;;5123990;27;20146;-76
2021/12/09 06:46:28;;;;;;;14.00;6.07;;;2.80;40.20;;;;;;5124311;27;20043;-76
2021/12/09 06:48:57;;;;;;;10.73;5.68;;;2.90;40.50;;;;;;5104342;27;20050;-76
2021/12/09 06:51:25;;;;;;;12.90;5.75;;;2.80;39.70;;;;;;5116032;27;20139;-75
2021/12/09 06:53:53;;;;;;;11.73;5.10;;;2.80;40.40;;;;;;5127230;27;20051;-75
2021/12/09 06:56:22;;;;;;;10.60;5.22;;;2.90;40.50;;;;;;5125713;27;20130;-76
2021/12/09 06:58:50;;;;;;;8.23;4.90;;;2.80;40.30;;;;;;5125192;27;20549;-75
2021/12/09 07:01:18;;;;;;;12.88;5.55;;;2.80;40.40;;;;;;5103819;27;20503;-76
2021/12/09 07:03:47;;;;;;;16.35;5.05;;;2.90;40.50;;;;;;5123335;27;20041;-75
2021/12/09 07:06:16;;;;;;;9.05;5.72;;;2.90;40.50;;;;;;5118222;27;20122;-76
2021/12/09 07:08:46;;;;;;;15.85;5.65;;;2.90;40.40;;;;;;5124791;27;20127;-76
2021/12/09 07:11:17;;;;;;;18.38;6.07;;;2.90;40.50;;;;;;5086522;27;20073;-76
2021/12/09 07:13:48;;;;;;;9.10;5.22;;;2.90;40.50;;;;;;5124059;27;20066;-76
2021/12/09 07:16:17;;;;;;;9.90;5.22;;;2.90;41.10;;;;;;5106474;27;20057;-77
2021/12/09 07:18:45;;;;;;;14.82;5.43;;;2.90;39.60;;;;;;5121871;27;20044;-77
2021/12/09 07:21:14;;;;;;;9.77;4.90;;;2.90;40.00;;;;;;5119232;27;20039;-75
2021/12/09 07:23:42;;;;;;;8.38;5.78;;;2.90;37.70;;;;;;5124482;27;20123;-76
2021/12/09 07:26:10;;;;;;;10.73;6.53;;;3.00;39.00;;;;;;5103877;27;20073;-75
2021/12/09 07:28:38;;;;;;;10.73;5.90;;;2.90;39.50;;;;;;5122691;27;20570;-75
2021/12/09 07:31:08;;;;;;;13.20;6.50;;;3.00;40.50;;;;;;5123313;27;20061;-76
2021/12/09 07:33:37;;;;;;;9.65;5.93;;;3.00;40.50;;;;;;5123402;27;20049;-75
2021/12/09 07:36:05;;;;;;;15.15;6.03;;;3.00;40.80;;;;;;5120776;27;20503;-76
2021/12/09 07:38:34;;;;;;;11.93;6.97;;;3.10;40.80;;;;;;5123237;27;20135;-75
2021/12/09 07:41:02;;;;;;;12.50;6.32;;;3.10;41.80;;;;;;5122937;27;20059;-76
2021/12/09 07:43:31;;;;;;;9.65;5.55;;;3.10;40.60;;;;;;5123380;27;20035;-76
2021/12/09 07:45:59;;;;;;;13.48;6.82;;;3.00;40.40;;;;;;5123380;27;20039;-77
2021/12/09 07:48:31;;;;;;;12.88;5.93;;;3.10;40.60;;;;;;5119201;27;20035;-76
2021/12/09 07:50:59;;;;;;;23.73;6.70;;;3.10;39.90;;;;;;5106463;27;20062;-76
2021/12/09 07:53:28;;;;;;;11.63;5.65;;;3.10;39.00;;;;;;5121480;27;20069;-76
2021/12/09 07:55:56;;;;;;;11.70;5.32;;;3.10;39.00;;;;;;5124492;27;20096;-76
2021/12/09 07:58:24;;;;;;;13.38;5.72;;;3.20;39.10;;;;;;5119398;27;20085;-76
2021/12/09 08:00:52;;;;;;;12.23;5.63;;;3.20;38.30;;;;;;5111382;27;20086;-76
2021/12/09 08:03:20;;;;;;;9.35;5.28;;;3.20;38.30;;;;;;5121837;27;20070;-76
2021/12/09 08:05:55;;;;;;;14.65;5.70;;;3.20;37.50;;;;;;5123722;27;20082;-77
2021/12/09 08:08:23;;;;;;;10.70;6.05;;;3.20;37.20;;;;;;5102740;27;20043;-76
2021/12/09 08:10:52;;;;;;;9.00;6.03;;;3.30;37.30;;;;;;5122731;27;20536;-76
2021/12/09 08:13:22;;;;;;;11.55;5.80;;;3.30;37.00;;;;;;5104568;27;20138;-77
2021/12/09 08:15:51;;;;;;;17.20;7.45;;;3.30;36.60;;;;;;5123322;27;20118;-77
2021/12/09 08:18:53;;;;;;;10.82;6.60;;;3.30;36.90;;;;;;5122448;27;20058;-76
2021/12/09 08:21:25;;;;;;;12.63;7.00;;;3.40;38.30;;;;;;5121819;27;20044;-76
2021/12/09 08:23:55;;;;;;;13.25;7.00;;;3.40;37.40;;;;;;5124067;27;21438;-75
2021/12/09 08:26:26;;;;;;;15.30;7.03;;;3.40;38.20;;;;;;5123056;27;20051;-76
2021/12/09 08:28:54;;;;;;;11.45;6.70;;;3.40;37.60;;;;;;5122033;27;20067;-76
2021/12/09 08:31:23;;;;;;;13.20;7.30;;;3.50;38.50;;;;;;5120240;27;20043;-76
2021/12/09 08:33:51;;;;;;;12.07;6.93;;;3.50;37.40;;;;;;5123890;27;20039;-75
2021/12/09 08:36:41;;;;;;;14.93;6.82;;;3.50;35.50;;;;;;5122752;27;20122;-77
2021/12/09 08:39:09;;;;;;;11.82;7.20;;;3.60;36.90;;;;;;5117400;27;20146;-76
2021/12/09 08:41:39;;;;;;;16.70;7.18;;;3.70;37.50;;;;;;5118372;27;20150;-75
2021/12/09 08:44:07;;;;;;;12.45;7.07;;;3.60;35.70;;;;;;5120997;27;20063;-76
2021/12/09 08:46:37;;;;;;;16.75;7.38;;;3.60;36.70;;;;;;5119520;27;20130;-76
2021/12/09 08:49:05;;;;;;;11.75;6.68;;;3.70;36.00;;;;;;5121171;27;20049;-75
2021/12/09 08:51:33;;;;;;;11.13;6.63;;;3.80;36.40;;;;;;5121011;27;20134;-75
2021/12/09 08:54:05;;;;;;;14.05;6.68;;;3.70;34.70;;;;;;5126158;27;20092;-75
2021/12/09 08:56:34;;;;;;;11.40;6.18;;;3.70;35.10;;;;;;5121824;27;20706;-76
2021/12/09 08:59:03;;;;;;;17.20;7.93;;;3.80;35.40;;;;;;5121468;27;20130;-76
2021/12/09 09:01:32;;;;;;;12.18;7.60;;;3.80;35.50;;;;;;5117794;27;20082;-75
2021/12/09 09:04:01;;;;;;;13.05;7.43;;;3.90;35.80;;;;;;5122947;27;20050;-76
2021/12/09 09:06:31;;;;;;;14.45;7.43;;;3.90;34.40;;;;;;5118542;27;20080;-75
2021/12/09 09:09:07;;;;;;;12.32;7.35;;;4.00;35.00;;;;;;5123174;27;20050;-75
2021/12/09 09:11:35;;;;;;;16.25;7.10;;;4.10;34.20;;;;;;5102083;27;20111;-75
2021/12/09 09:14:03;;;;;;;9.43;6.40;;;4.10;33.50;;;;;;5124356;27;20044;-75
2021/12/09 09:16:31;;;;;;;13.50;6.90;;;4.00;30.70;;;;;;5119401;27;20127;-76
2021/12/09 09:18:59;;;;;;;13.10;7.93;;;3.90;33.00;;;;;;5118965;27;20142;-76
2021/12/09 09:21:28;;;;;;;12.95;7.43;;;4.00;34.10;;;;;;5119315;27;20044;-76
2021/12/09 09:23:56;;;;;;;14.68;7.53;;;4.10;34.30;;;;;;5123055;27;20081;-76
2021/12/09 09:26:28;;;;;;;16.05;7.90;;;4.00;33.60;;;;;;5123445;27;20043;-76
2021/12/09 09:28:59;;;;;;;15.88;8.80;;;4.00;33.10;;;;;;5119775;27;20035;-77
2021/12/09 09:31:30;;;;;;;17.33;9.32;;;4.20;33.20;;;;;;5117090;27;20046;-77
2021/12/09 09:34:02;;;;;;;17.95;8.80;;;4.20;33.10;;;;;;5118305;27;20123;-76
2021/12/09 09:36:32;;;;;;;17.15;8.35;;;4.10;31.60;;;;;;5120138;28;20122;-77
2021/12/09 09:39:16;;;;;;;15.43;8.55;;;4.10;33.10;;;;;;5122687;27;20050;-77
2021/12/09 09:41:54;;;;;;;17.25;9.82;;;4.10;33.10;;;;;;5115962;27;20074;-75
2021/12/09 09:44:28;;;;;;;16.55;9.32;;;4.20;33.50;;;;;;5122138;27;20126;-77
2021/12/09 09:46:59;;;;;;;19.92;10.55;;;4.30;33.30;;;;;;5124202;27;20051;-77
2021/12/09 09:49:28;;;;;;;18.50;9.52;;;4.40;34.80;;;;;;5116208;27;20043;-77
2021/12/09 09:51:57;;;;;;;19.55;9.50;;;4.50;34.70;;;;;;5095828;27;20148;-76
2021/12/09 09:54:25;;;;;;;18.50;9.00;;;4.40;33.30;;;;;;5122921;28;20047;-76
2021/12/09 09:56:57;;;;;;;21.75;11.25;;;4.30;33.30;;;;;;5118847;27;20039;-76
2021/12/09 09:59:25;;;;;;;17.63;9.73;;;4.30;35.30;;;;;;5087256;27;20051;-76
2021/12/09 10:01:55;;;;;;;17.55;9.98;;;4.20;33.70;;;;;;5120414;27;20065;-78
2021/12/09 10:04:33;;;;;;;17.23;10.40;;;4.30;36.20;;;;;;5127114;27;20039;-76
2021/12/09 10:07:04;;;;;;;18.42;11.73;;;4.40;36.00;;;;;;5122148;27;20044;-75
2021/12/09 10:09:33;;;;;;;24.00;11.02;;;4.40;35.60;;;;;;5117154;27;20139;-76
2021/12/09 10:12:04;;;;;;;16.30;10.50;;;4.50;35.80;;;;;;5118536;27;20039;-74
2021/12/09 10:14:33;;;;;;;17.60;10.02;;;4.60;36.10;;;;;;5117381;27;20102;-74
2021/12/09 10:17:05;;;;;;;19.67;10.90;;;4.60;35.40;;;;;;5098128;27;20321;-76
2021/12/09 10:19:35;;;;;;;16.25;10.27;;;4.70;34.20;;;;;;5105224;27;20058;-75
2021/12/09 10:22:08;;;;;;;18.25;10.32;;;4.60;33.60;;;;;;5124347;27;20039;-76
2021/12/09 10:24:37;;;;;;;17.07;10.67;;;4.60;33.50;;;;;;5124750;27;20067;-75
2021/12/09 10:27:09;;;;;;;18.92;10.95;;;4.70;33.70;;;;;;5087048;27;20040;-75
2021/12/09 10:29:41;;;;;;;17.92;10.48;;;4.70;33.60;;;;;;5124963;27;20143;-76
2021/12/09 10:32:17;;;;;;;15.35;9.60;;;4.60;32.00;;;;;;5120688;27;20531;-77
2021/12/09 10:34:47;;;;;;;23.70;12.55;;;4.70;33.00;;;;;;5121689;27;20053;-76
2021/12/09 10:37:20;;;;;;;16.80;9.10;;;4.80;30.30;;;;;;5125697;27;20035;-77
2021/12/09 10:39:50;;;;;;;18.50;9.63;;;4.70;28.70;;;;;;5103110;27;20099;-78
2021/12/09 10:42:23;;;;;;;18.33;8.93;;;4.60;29.50;;;;;;5120765;27;20104;-77
2021/12/09 10:44:58;;;;;;;18.58;10.38;;;4.60;28.90;;;;;;5103957;27;20054;-78
2021/12/09 10:47:48;;;;;;;17.70;10.63;;;4.80;30.80;;;;;;5123523;27;20274;-77
2021/12/09 10:50:29;;;;;;;14.73;8.65;;;4.70;29.50;;;;;;5119938;27;20512;-76
2021/12/09 10:53:03;;;;;;;14.98;9.43;;;4.70;29.10;;;;;;5106066;27;20047;-76
2021/12/09 10:55:34;;;;;;;16.52;10.25;;;4.80;29.10;;;;;;5126610;27;20482;-78
2021/12/09 10:58:07;;;;;;;15.90;9.32;;;4.70;27.70;;;;;;5108051;27;20130;-79
2021/12/09 11:00:40;;;;;;;14.80;9.48;;;4.50;28.10;;;;;;5103798;27;20611;-79
2021/12/09 11:03:16;;;;;;;15.57;9.40;;;4.60;27.10;;;;;;5101832;27;20047;-77
2021/12/09 11:05:48;;;;;;;16.58;9.80;;;4.70;28.40;;;;;;5128089;27;20572;-77
2021/12/09 11:08:23;;;;;;;18.23;9.65;;;4.70;28.40;;;;;;5110474;27;20074;-77
2021/12/09 11:10:59;;;;;;;17.77;10.38;;;4.70;27.60;;;;;;5116102;27;20426;-79
2021/12/09 11:13:37;;;;;;;20.80;10.30;;;4.70;27.60;;;;;;5122531;27;20653;-78
2021/12/09 11:16:07;;;;;;;17.67;10.60;;;4.60;28.50;;;;;;5124632;27;20075;-78
2021/12/09 11:18:39;;;;;;;18.48;10.77;;;4.60;28.10;;;;;;5123055;27;20067;-78
2021/12/09 11:21:12;;;;;;;18.70;11.23;;;4.50;28.80;;;;;;5119872;27;20069;-76
2021/12/09 11:23:44;;;;;;;22.55;11.40;;;4.70;29.60;;;;;;5103414;27;20045;-77
2021/12/09 11:26:35;;;;;;;16.00;11.20;;;4.60;28.60;;;;;;5120586;27;20634;-78
2021/12/09 11:29:09;;;;;;;15.60;10.73;;;4.50;27.90;;;;;;5125058;27;20107;-76
2021/12/09 11:31:56;;;;;;;22.92;11.85;;;4.40;29.40;;;;;;5123101;27;20134;-76
2021/12/09 11:34:30;;;;;;;18.55;10.45;;;4.50;30.30;;;;;;5124877;27;20042;-77
2021/12/09 11:37:05;;;;;;;18.23;11.10;;;4.50;30.00;;;;;;5106428;27;20039;-78
2021/12/09 11:39:37;;;;;;;17.58;10.85;;;4.60;30.80;;;;;;5118824;27;20055;-78
2021/12/09 11:42:20;;;;;;;16.98;10.77;;;4.40;29.40;;;;;;5120071;27;20045;-77
2021/12/09 11:45:08;;;;;;;17.88;10.95;;;4.30;32.20;;;;;;5124756;27;20125;-78
2021/12/09 11:47:37;;;;;;;18.20;10.95;;;4.40;31.60;;;;;;5103133;27;20405;-78
2021/12/09 11:50:11;;;;;;;17.70;11.27;;;4.40;30.00;;;;;;5086844;27;20127;-78
2021/12/09 11:52:40;;;;;;;18.98;11.10;;;4.30;29.60;;;;;;5124358;27;20130;-78
2021/12/09 11:55:11;;;;;;;15.45;10.30;;;4.40;29.70;;;;;;5104494;27;20572;-77
2021/12/09 11:57:43;;;;;;;20.77;11.55;;;4.40;30.60;;;;;;5122838;27;20043;-78
2021/12/09 12:06:47;;;;;;;15.00;8.77;;;4.50;29.70;;;;;;5103605;27;20043;-78
2021/12/09 12:12:40;;;;;;;14.00;8.73;;;4.60;28.20;;;;;;5118159;27;20417;-78
2021/12/09 12:15:51;;;;;;;11.80;7.22;;;4.70;26.60;;;;;;5124535;27;20089;-78
2021/12/09 12:18:47;;;;;;;12.18;7.70;;;4.60;25.20;;;;;;5126092;27;20054;-78
2021/12/09 12:21:48;;;;;;;17.25;7.63;;;4.80;25.40;;;;;;5122973;27;20043;-78
2021/12/09 12:27:30;;;;;;;8.38;5.97;;;4.70;24.10;;;;;;5102917;27;20047;-77
2021/12/09 12:30:15;;;;;;;11.55;6.10;;;4.60;22.80;;;;;;5124241;27;20047;-79
2021/12/09 12:33:11;;;;;;;9.27;5.13;;;4.60;23.30;;;;;;5121250;27;20129;-77
2021/12/09 12:38:49;;;;;;;9.00;5.00;;;4.60;19.40;;;;;;5119444;27;20130;-78
2021/12/09 12:41:20;;;;;;;12.63;5.10;;;4.70;20.60;;;;;;5122764;27;20051;-77
2021/12/09 12:43:56;;;;;;;10.32;4.75;;;4.60;21.30;;;;;;5122616;27;20047;-78
2021/12/09 12:46:47;;;;;;;12.63;5.45;;;4.50;19.30;;;;;;5102761;27;20089;-77
2021/12/09 12:49:30;;;;;;;10.60;5.05;;;4.70;20.50;;;;;;5123021;27;20118;-78
2021/12/09 12:52:07;;;;;;;10.07;4.75;;;4.80;19.90;;;;;;5121305;27;20067;-79
2021/12/09 12:54:47;;;;;;;11.05;4.35;;;4.60;19.40;;;;;;5122603;27;20578;-79
2021/12/09 12:57:31;;;;;;;7.55;4.63;;;4.60;19.10;;;;;;5120570;27;20050;-78
2021/12/09 13:00:13;;;;;;;9.43;4.72;;;4.40;19.20;;;;;;5119562;27;20078;-78
2021/12/09 13:03:08;;;;;;;10.27;4.72;;;4.40;19.80;;;;;;5118442;27;20050;-77
2021/12/09 13:05:57;;;;;;;8.90;4.53;;;4.60;20.20;;;;;;5123971;27;20046;-78
2021/12/09 13:11:41;;;;;;;11.63;4.57;;;4.30;18.90;;;;;;5070789;27;20059;-77
2021/12/09 13:14:18;;;;;;;9.68;4.70;;;4.40;19.10;;;;;;5120891;27;20247;-75
2021/12/09 13:17:01;;;;;;;6.93;3.97;;;4.30;19.00;;;;;;5100923;27;20585;-74
2021/12/09 13:19:35;;;;;;;13.43;5.30;;;4.40;18.40;;;;;;5121100;27;20067;-76
2021/12/09 13:22:20;;;;;;;16.38;5.25;;;4.30;18.70;;;;;;5098353;27;20459;-75
2021/12/09 13:24:54;;;;;;;12.07;4.60;;;4.50;17.80;;;;;;5105042;28;20039;-76
2021/12/09 13:36:37;;;;;;;12.90;4.95;;;4.50;16.50;;;;;;5102897;27;20137;-76
2021/12/09 13:47:43;;;;;;;14.88;5.45;;;4.30;19.20;;;;;;5128872;27;20116;-78